Time;durP1;ratioP1;P1;durP2;ratioP2;P2;SDS_P1;SDS_P2;PMS_P1;PMS_P2;Temp;Humidity;BMP_temperature;BMP_pressure;BME280_temperature;BME280_humidity;BME280_pressure;Samples;Min_cycle;Max_cycle;Signal;HPM_P1;HPM_P2
2022/05/01 00:01:27;;;;;;;3.55;3.10;;;13.80;58.30;;;;;;5074350;28;20032;-61
2022/05/01 00:03:53;;;;;;;3.95;3.10;;;13.80;58.00;;;;;;5074245;28;20024;-61
2022/05/01 00:06:19;;;;;;;4.35;3.20;;;13.80;58.10;;;;;;5060814;28;20017;-61
2022/05/01 00:08:46;;;;;;;3.88;3.42;;;13.80;58.10;;;;;;5074501;28;20032;-61
2022/05/01 00:11:12;;;;;;;4.10;3.50;;;13.80;58.10;;;;;;5062089;28;20107;-61
2022/05/01 00:13:39;;;;;;;4.28;3.42;;;13.80;58.30;;;;;;5074515;28;20024;-61
2022/05/01 00:16:05;;;;;;;3.40;2.95;;;13.80;58.10;;;;;;5074295;28;20024;-61
2022/05/01 00:18:31;;;;;;;5.90;3.47;;;13.80;58.40;;;;;;5074461;28;20020;-61
2022/05/01 00:20:56;;;;;;;4.50;3.30;;;13.90;58.40;;;;;;5070590;28;20031;-61
2022/05/01 00:23:22;;;;;;;4.78;3.22;;;13.80;58.20;;;;;;5072135;28;20041;-61
2022/05/01 00:25:48;;;;;;;3.58;3.28;;;13.80;58.10;;;;;;5073560;28;20082;-61
2022/05/01 00:28:15;;;;;;;4.05;3.22;;;13.80;58.00;;;;;;5074041;28;20024;-61
2022/05/01 00:30:41;;;;;;;3.78;3.35;;;13.80;58.20;;;;;;5073806;28;20116;-61
2022/05/01 00:38:50;;;;;;;3.38;3.08;;;13.80;58.30;;;;;;5072934;28;20077;-61
2022/05/01 00:41:16;;;;;;;4.82;3.30;;;13.80;58.40;;;;;;5073148;28;20024;-61
2022/05/01 00:44:03;;;;;;;3.55;3.25;;;13.80;58.40;;;;;;5074050;28;20155;-61
2022/05/01 00:46:33;;;;;;;4.25;3.22;;;13.80;58.10;;;;;;5073737;28;20017;-61
2022/05/01 00:49:01;;;;;;;3.55;3.20;;;13.80;58.10;;;;;;5073843;28;20380;-61
2022/05/01 00:51:30;;;;;;;4.45;3.45;;;13.80;58.30;;;;;;5071807;28;20028;-61
2022/05/01 00:53:56;;;;;;;5.45;3.60;;;13.70;58.20;;;;;;5073599;28;20027;-61
2022/05/01 00:56:24;;;;;;;4.85;3.08;;;13.70;58.30;;;;;;5072945;28;20113;-61
2022/05/01 00:58:51;;;;;;;4.68;3.45;;;13.70;58.50;;;;;;5060698;28;20150;-61
2022/05/01 01:01:19;;;;;;;3.83;3.22;;;13.70;58.50;;;;;;5073463;28;20567;-61
2022/05/01 01:03:44;;;;;;;3.55;3.20;;;13.70;58.60;;;;;;5073460;28;20047;-61
2022/05/01 01:06:11;;;;;;;3.53;3.22;;;13.70;58.70;;;;;;5073547;28;20104;-61
2022/05/01 01:08:37;;;;;;;5.53;3.78;;;13.60;58.70;;;;;;5072849;28;20108;-61
2022/05/01 01:11:03;;;;;;;4.80;3.80;;;13.60;58.80;;;;;;5073192;28;20082;-61
2022/05/01 01:13:29;;;;;;;4.82;3.60;;;13.60;59.30;;;;;;5069522;28;20033;-61
2022/05/01 01:15:56;;;;;;;3.88;3.47;;;13.70;58.70;;;;;;5064945;28;20384;-61
2022/05/01 01:18:25;;;;;;;4.47;3.63;;;13.70;58.70;;;;;;5072877;28;20024;-61
2022/05/01 01:20:51;;;;;;;5.60;4.03;;;13.60;58.60;;;;;;5072206;28;20029;-61
2022/05/01 01:23:18;;;;;;;4.10;3.53;;;13.70;58.60;;;;;;5072575;28;20076;-61
2022/05/01 01:25:44;;;;;;;4.60;3.60;;;13.70;58.60;;;;;;5073032;28;20035;-61
2022/05/01 01:28:10;;;;;;;5.22;3.70;;;13.70;58.70;;;;;;5068311;28;20024;-61
2022/05/01 01:33:25;;;;;;;3.75;3.30;;;13.70;59.00;;;;;;5060978;28;20036;-61
2022/05/01 01:35:51;;;;;;;3.95;3.38;;;13.70;59.10;;;;;;5072756;28;20383;-61
2022/05/01 01:38:18;;;;;;;4.38;3.20;;;13.70;59.20;;;;;;5072575;28;20097;-61
2022/05/01 01:40:53;;;;;;;5.47;3.65;;;13.70;59.50;;;;;;5072555;28;20044;-61
2022/05/01 01:43:29;;;;;;;4.93;4.05;;;13.70;59.60;;;;;;5071840;28;20017;-61
2022/05/01 01:45:55;;;;;;;5.18;3.92;;;13.70;59.70;;;;;;5072464;28;20019;-61
2022/05/01 01:48:22;;;;;;;4.18;3.50;;;13.70;59.50;;;;;;5064827;28;20017;-61
2022/05/01 01:50:59;;;;;;;3.90;3.45;;;13.70;59.50;;;;;;5070134;28;20522;-61
2022/05/01 01:53:26;;;;;;;4.82;3.60;;;13.60;59.50;;;;;;5072509;28;20028;-61
2022/05/01 01:55:52;;;;;;;4.43;3.40;;;13.60;59.40;;;;;;5065080;28;20480;-61
2022/05/01 01:58:19;;;;;;;4.97;3.58;;;13.60;59.30;;;;;;5072102;28;20028;-61
2022/05/01 02:00:45;;;;;;;4.15;3.38;;;13.60;59.10;;;;;;5072352;28;20046;-61
2022/05/01 02:03:10;;;;;;;4.70;3.47;;;13.60;59.20;;;;;;5072220;28;20099;-61
2022/05/01 02:05:36;;;;;;;4.35;3.45;;;13.50;59.10;;;;;;5068448;28;20024;-61
2022/05/01 02:08:03;;;;;;;5.65;3.70;;;13.50;59.70;;;;;;5071936;28;20027;-61
2022/05/01 02:10:29;;;;;;;4.40;3.50;;;13.50;59.00;;;;;;5067296;28;20468;-61
2022/05/01 02:12:54;;;;;;;4.88;3.60;;;13.50;58.80;;;;;;5054274;28;20086;-61
2022/05/01 02:15:21;;;;;;;3.97;3.33;;;13.50;58.70;;;;;;5071915;28;20021;-61
2022/05/01 02:17:49;;;;;;;4.03;3.25;;;13.50;58.60;;;;;;5071993;28;20044;-61
2022/05/01 02:20:16;;;;;;;8.07;3.60;;;13.50;58.60;;;;;;5070353;28;20016;-61
2022/05/01 02:22:42;;;;;;;3.90;3.50;;;13.50;58.70;;;;;;5061156;28;20041;-61
2022/05/01 02:25:09;;;;;;;3.90;3.22;;;13.60;58.60;;;;;;5072120;28;20384;-61
2022/05/01 02:27:38;;;;;;;4.82;3.53;;;13.50;58.60;;;;;;5071818;28;20081;-61
2022/05/01 02:30:05;;;;;;;4.50;3.38;;;13.50;58.70;;;;;;5071799;28;20021;-61
2022/05/01 02:32:31;;;;;;;4.47;3.70;;;13.50;58.70;;;;;;5071987;28;20044;-61
2022/05/01 02:34:57;;;;;;;4.63;3.80;;;13.50;58.70;;;;;;5068068;28;20033;-61
2022/05/01 02:37:22;;;;;;;3.88;3.47;;;13.50;58.40;;;;;;5061635;28;20028;-61
2022/05/01 02:39:48;;;;;;;3.80;3.30;;;13.50;58.60;;;;;;5062826;28;20060;-61
2022/05/01 02:42:13;;;;;;;4.88;3.65;;;13.50;58.70;;;;;;5071640;28;20032;-61
2022/05/01 02:44:39;;;;;;;4.78;3.20;;;13.50;58.70;;;;;;5071762;28;20384;-61
2022/05/01 02:47:05;;;;;;;5.65;3.40;;;13.50;58.70;;;;;;5071712;28;20031;-61
2022/05/01 02:49:32;;;;;;;5.20;3.47;;;13.50;58.80;;;;;;5052836;28;20041;-61
2022/05/01 02:51:58;;;;;;;3.80;3.40;;;13.50;58.90;;;;;;5062412;28;20105;-61
2022/05/01 02:54:24;;;;;;;4.40;3.40;;;13.50;58.70;;;;;;5072505;28;20027;-61
2022/05/01 02:56:50;;;;;;;4.63;3.30;;;13.50;58.60;;;;;;5046261;28;20029;-61
2022/05/01 02:59:17;;;;;;;4.25;3.20;;;13.50;59.00;;;;;;5075267;28;20029;-61
2022/05/01 03:01:44;;;;;;;4.57;3.95;;;13.50;58.80;;;;;;5075924;28;20556;-61
2022/05/01 03:04:10;;;;;;;3.70;3.38;;;13.50;58.90;;;;;;5075446;28;20016;-61
2022/05/01 03:06:35;;;;;;;4.60;3.60;;;13.50;58.90;;;;;;5075687;28;20025;-61
2022/05/01 03:09:02;;;;;;;5.07;3.92;;;13.50;59.00;;;;;;5061549;28;20025;-61
2022/05/01 03:11:27;;;;;;;4.43;3.38;;;13.50;59.10;;;;;;5062845;28;20067;-61
2022/05/01 03:13:54;;;;;;;4.18;3.30;;;13.50;59.30;;;;;;5064097;28;20484;-61
2022/05/01 03:16:19;;;;;;;3.90;3.13;;;13.50;59.10;;;;;;5075349;28;20042;-61
2022/05/01 03:24:15;;;;;;;3.90;3.45;;;13.50;58.70;;;;;;5072409;28;20036;-61
2022/05/01 03:26:42;;;;;;;3.95;3.20;;;13.50;58.60;;;;;;5075424;28;20032;-61
2022/05/01 03:29:09;;;;;;;4.47;3.28;;;13.40;58.50;;;;;;5075209;28;20531;-61
2022/05/01 03:31:37;;;;;;;3.95;3.53;;;13.40;58.70;;;;;;5065437;28;20086;-61
2022/05/01 03:34:04;;;;;;;3.80;3.15;;;13.40;59.00;;;;;;5075268;28;20434;-61
2022/05/01 03:36:30;;;;;;;3.92;3.28;;;13.40;59.20;;;;;;5074828;28;20032;-61
2022/05/01 03:38:55;;;;;;;3.50;3.10;;;13.40;58.90;;;;;;5075110;28;20031;-61
2022/05/01 03:41:21;;;;;;;4.53;3.47;;;13.50;58.90;;;;;;5074804;28;20025;-61
2022/05/01 03:43:47;;;;;;;4.32;3.38;;;13.50;58.90;;;;;;5061613;28;20476;-61
2022/05/01 03:46:13;;;;;;;4.18;3.30;;;13.50;59.00;;;;;;5074809;28;20055;-61
2022/05/01 03:48:39;;;;;;;4.45;3.38;;;13.50;59.10;;;;;;5062454;28;20040;-61
2022/05/01 03:51:05;;;;;;;4.20;3.25;;;13.60;59.00;;;;;;5073197;28;20038;-61
2022/05/01 03:53:31;;;;;;;3.95;3.17;;;13.60;59.00;;;;;;5074649;28;20498;-61
2022/05/01 03:55:57;;;;;;;3.60;3.30;;;13.70;59.10;;;;;;5074925;28;20040;-61
2022/05/01 03:58:23;;;;;;;4.28;3.53;;;13.70;58.90;;;;;;5074478;28;20056;-61
2022/05/01 04:00:49;;;;;;;3.38;3.08;;;13.80;58.80;;;;;;5073765;28;20052;-61
2022/05/01 04:03:15;;;;;;;4.13;3.20;;;13.80;58.80;;;;;;5074453;28;20029;-61
2022/05/01 04:05:41;;;;;;;4.15;3.45;;;13.90;58.50;;;;;;5066214;28;20020;-61
2022/05/01 04:08:08;;;;;;;3.45;3.00;;;13.90;58.60;;;;;;5074422;28;20032;-61
2022/05/01 04:10:45;;;;;;;5.40;3.50;;;13.90;58.40;;;;;;5074483;28;20032;-61
2022/05/01 04:13:12;;;;;;;4.00;3.15;;;14.00;58.20;;;;;;5074533;28;20056;-61
2022/05/01 04:15:38;;;;;;;3.88;3.05;;;14.10;58.40;;;;;;5074335;28;20016;-61
2022/05/01 04:18:05;;;;;;;3.70;3.10;;;14.20;58.40;;;;;;5064352;28;20025;-61
2022/05/01 04:20:32;;;;;;;6.97;3.78;;;14.20;58.40;;;;;;5053898;28;20365;-62
2022/05/01 04:22:59;;;;;;;4.07;3.38;;;14.30;58.30;;;;;;5070670;28;20076;-62
2022/05/01 04:25:30;;;;;;;4.13;3.22;;;14.30;58.20;;;;;;5074002;28;20028;-62
2022/05/01 04:28:16;;;;;;;5.53;3.25;;;14.40;58.00;;;;;;5074139;28;20017;-62
2022/05/01 04:30:41;;;;;;;3.88;3.33;;;14.50;57.80;;;;;;5055772;28;20037;-62
2022/05/01 04:33:09;;;;;;;4.07;3.28;;;14.50;57.90;;;;;;5073965;28;20511;-62
2022/05/01 04:35:38;;;;;;;5.07;3.20;;;14.60;57.70;;;;;;5060408;28;20040;-62
2022/05/01 04:38:12;;;;;;;3.70;3.13;;;14.70;57.70;;;;;;5068554;28;20025;-62
2022/05/01 04:40:40;;;;;;;5.35;3.38;;;14.80;57.40;;;;;;5072231;28;20028;-62
2022/05/01 04:43:07;;;;;;;3.33;3.03;;;15.00;57.50;;;;;;5074069;28;20021;-62
2022/05/01 04:45:34;;;;;;;3.78;3.30;;;15.20;57.10;;;;;;5073928;28;20108;-63
2022/05/01 04:48:01;;;;;;;5.22;3.40;;;15.40;56.70;;;;;;5073767;28;20024;-63
2022/05/01 04:50:27;;;;;;;3.88;3.28;;;15.50;56.50;;;;;;5072204;28;20040;-63
2022/05/01 04:52:54;;;;;;;3.90;2.88;;;15.80;56.80;;;;;;5073607;28;20549;-63
2022/05/01 04:55:19;;;;;;;4.07;3.03;;;16.30;56.50;;;;;;5066354;28;20362;-63
2022/05/01 04:57:45;;;;;;;3.03;2.72;;;16.90;56.00;;;;;;5072319;28;20095;-62
2022/05/01 05:00:13;;;;;;;4.50;3.30;;;17.50;54.70;;;;;;5073369;28;20021;-63
2022/05/01 05:02:41;;;;;;;4.38;3.15;;;17.80;53.70;;;;;;5073340;28;20025;-62
2022/05/01 05:05:09;;;;;;;3.85;2.80;;;17.80;53.10;;;;;;5073565;28;20048;-63
2022/05/01 05:07:36;;;;;;;4.50;3.10;;;17.60;53.00;;;;;;5065142;28;20025;-63
2022/05/01 05:10:03;;;;;;;4.13;3.13;;;17.40;53.70;;;;;;5068330;28;20025;-63
2022/05/01 05:12:29;;;;;;;3.72;3.15;;;17.20;53.40;;;;;;5064505;28;20021;-62
2022/05/01 05:14:58;;;;;;;3.83;2.95;;;16.90;53.50;;;;;;5068751;28;20027;-63
2022/05/01 05:17:24;;;;;;;4.50;3.30;;;16.70;53.90;;;;;;5072908;28;20024;-62
2022/05/01 05:19:50;;;;;;;4.70;3.35;;;16.40;54.10;;;;;;5072894;28;20031;-62
2022/05/01 05:22:17;;;;;;;4.05;3.00;;;16.20;54.30;;;;;;5072124;28;20551;-62
2022/05/01 05:24:43;;;;;;;3.42;2.90;;;16.10;54.40;;;;;;5073177;28;20028;-62
2022/05/01 05:27:08;;;;;;;4.20;3.58;;;15.90;54.70;;;;;;5072815;28;20021;-62
2022/05/01 05:29:35;;;;;;;5.20;3.63;;;15.90;55.00;;;;;;5063251;28;20145;-62
2022/05/01 05:32:00;;;;;;;5.95;3.78;;;15.70;55.00;;;;;;5072697;28;20054;-62
2022/05/01 05:34:26;;;;;;;4.15;3.35;;;15.70;55.20;;;;;;5072973;28;20036;-62
2022/05/01 05:36:52;;;;;;;3.35;3.03;;;15.60;55.20;;;;;;5072719;28;20029;-63
2022/05/01 05:39:18;;;;;;;4.05;3.30;;;15.50;55.30;;;;;;5067269;28;20030;-62
2022/05/01 05:41:44;;;;;;;4.97;3.78;;;15.50;55.60;;;;;;5071929;28;20029;-63
2022/05/01 05:44:10;;;;;;;4.30;3.58;;;15.50;56.10;;;;;;5072638;28;20050;-62
2022/05/01 05:46:36;;;;;;;6.55;3.47;;;15.40;56.40;;;;;;5072040;28;20103;-62
2022/05/01 05:49:02;;;;;;;4.57;3.45;;;15.40;56.80;;;;;;5072542;28;20547;-62
2022/05/01 05:51:27;;;;;;;4.03;3.40;;;15.40;56.90;;;;;;5072319;28;20098;-62
2022/05/01 05:53:53;;;;;;;4.18;3.30;;;15.40;57.20;;;;;;5072753;28;20032;-63
2022/05/01 05:56:20;;;;;;;4.30;3.38;;;15.40;57.40;;;;;;5072082;28;20459;-62
2022/05/01 05:58:45;;;;;;;4.55;3.58;;;15.50;58.00;;;;;;5072473;28;20036;-63
2022/05/01 06:01:12;;;;;;;4.13;3.17;;;15.50;57.30;;;;;;5072330;28;20028;-62
2022/05/01 06:03:39;;;;;;;3.72;3.30;;;15.60;57.20;;;;;;5067932;28;20074;-63
2022/05/01 06:06:05;;;;;;;3.53;3.17;;;15.70;56.90;;;;;;5072235;28;20120;-63
2022/05/01 06:08:31;;;;;;;4.18;3.55;;;15.70;57.00;;;;;;5071020;28;20021;-63
2022/05/01 06:10:57;;;;;;;5.05;3.42;;;15.70;56.90;;;;;;5063762;28;20121;-62
2022/05/01 06:13:22;;;;;;;4.22;3.45;;;15.80;56.90;;;;;;5066325;28;20487;-63
2022/05/01 06:15:48;;;;;;;5.45;3.65;;;15.80;57.20;;;;;;5072073;28;20032;-63
2022/05/01 06:18:15;;;;;;;4.72;3.50;;;15.80;57.40;;;;;;5074734;28;20028;-63
2022/05/01 06:20:41;;;;;;;3.90;3.38;;;15.80;57.40;;;;;;5067976;28;20020;-63
2022/05/01 06:23:07;;;;;;;3.75;3.17;;;16.00;57.30;;;;;;5071183;28;20106;-62
2022/05/01 06:25:35;;;;;;;5.18;3.50;;;16.00;57.00;;;;;;5071781;28;20021;-63
2022/05/01 06:28:01;;;;;;;4.03;3.58;;;16.10;56.70;;;;;;5068062;28;20082;-63
2022/05/01 06:30:26;;;;;;;4.30;3.38;;;16.20;56.60;;;;;;5069586;28;20435;-63
2022/05/01 06:32:53;;;;;;;3.72;3.25;;;16.20;56.50;;;;;;5071798;28;20063;-63
2022/05/01 06:35:19;;;;;;;4.75;3.63;;;16.10;56.20;;;;;;5071851;28;20048;-63
2022/05/01 06:37:45;;;;;;;5.70;3.80;;;16.00;56.20;;;;;;5064435;28;20507;-62
2022/05/01 06:40:10;;;;;;;4.55;3.58;;;16.00;56.00;;;;;;5071230;28;20040;-63
2022/05/01 06:42:37;;;;;;;4.18;3.45;;;15.90;56.70;;;;;;5071697;28;20046;-63
2022/05/01 06:45:04;;;;;;;4.68;3.55;;;15.90;56.30;;;;;;5071721;28;20024;-62
2022/05/01 06:47:30;;;;;;;4.78;3.78;;;15.80;56.90;;;;;;5070560;28;20518;-62
2022/05/01 06:49:55;;;;;;;4.55;3.90;;;15.80;56.00;;;;;;5071932;28;20477;-63
2022/05/01 06:52:25;;;;;;;4.47;3.53;;;15.90;55.80;;;;;;5071396;28;20031;-63
2022/05/01 06:54:55;;;;;;;4.60;3.88;;;15.90;55.90;;;;;;5070291;28;20111;-62
2022/05/01 06:57:21;;;;;;;3.88;3.40;;;15.90;56.00;;;;;;5071321;28;20052;-62
2022/05/01 06:59:47;;;;;;;4.95;3.72;;;15.90;55.80;;;;;;5071701;28;20502;-63
2022/05/01 07:02:16;;;;;;;4.65;3.63;;;15.90;55.60;;;;;;5071138;28;20017;-63
2022/05/01 07:04:41;;;;;;;5.93;3.50;;;15.90;55.50;;;;;;5060765;28;20026;-63
2022/05/01 07:07:07;;;;;;;4.22;3.50;;;15.90;55.30;;;;;;5065229;28;20027;-63
2022/05/01 07:09:33;;;;;;;5.85;3.55;;;15.90;55.30;;;;;;5070067;28;20029;-63
2022/05/01 07:11:59;;;;;;;4.47;3.42;;;16.00;55.40;;;;;;5053297;28;20033;-63
2022/05/01 07:14:24;;;;;;;4.63;3.47;;;16.10;55.20;;;;;;5071290;28;20032;-63
2022/05/01 07:16:50;;;;;;;4.55;3.75;;;16.20;55.20;;;;;;5071393;28;20484;-63
2022/05/01 07:19:16;;;;;;;4.20;3.50;;;16.30;54.70;;;;;;5068871;28;20028;-63
2022/05/01 07:21:42;;;;;;;5.20;3.70;;;16.40;54.50;;;;;;5071493;28;20427;-63
2022/05/01 07:24:07;;;;;;;4.00;3.17;;;16.40;54.10;;;;;;5071258;28;20041;-63
2022/05/01 07:26:34;;;;;;;4.60;3.50;;;16.50;54.10;;;;;;5071470;28;20073;-63
2022/05/01 07:29:00;;;;;;;4.28;3.60;;;16.60;54.00;;;;;;5062658;28;20437;-63
2022/05/01 07:31:26;;;;;;;5.07;3.63;;;16.60;54.00;;;;;;5071406;28;20024;-63
2022/05/01 07:33:52;;;;;;;4.05;3.15;;;16.60;53.70;;;;;;5071116;28;20024;-63
2022/05/01 07:36:19;;;;;;;4.43;3.65;;;16.70;53.60;;;;;;5070559;28;20115;-63
2022/05/01 07:38:45;;;;;;;3.63;3.20;;;16.70;53.40;;;;;;5055196;28;20120;-62
2022/05/01 07:41:11;;;;;;;3.97;3.42;;;16.70;53.00;;;;;;5069757;28;20031;-63
2022/05/01 07:43:38;;;;;;;4.50;3.78;;;16.70;52.90;;;;;;5074883;28;20025;-63
2022/05/01 07:46:04;;;;;;;4.18;3.10;;;16.70;52.70;;;;;;5066598;28;20013;-63
2022/05/01 07:48:30;;;;;;;4.45;3.47;;;16.70;52.60;;;;;;5074777;28;20086;-63
2022/05/01 07:50:56;;;;;;;4.50;3.60;;;16.80;52.50;;;;;;5075108;28;20031;-63
2022/05/01 07:53:21;;;;;;;3.78;3.10;;;16.80;52.20;;;;;;5073148;28;20029;-62
2022/05/01 07:55:47;;;;;;;3.70;3.30;;;16.80;52.00;;;;;;5074693;28;20052;-63
2022/05/01 07:58:13;;;;;;;3.95;3.30;;;16.90;52.20;;;;;;5074854;28;20090;-63
2022/05/01 08:00:38;;;;;;;4.80;3.88;;;16.90;51.80;;;;;;5074488;28;20031;-63
2022/05/01 08:05:48;;;;;;;3.38;2.80;;;17.10;51.70;;;;;;5074740;28;20024;-64
2022/05/01 08:08:14;;;;;;;3.63;2.90;;;17.10;50.80;;;;;;5073903;28;20029;-64
2022/05/01 08:10:40;;;;;;;3.45;2.90;;;17.10;50.80;;;;;;5073848;28;20438;-63
2022/05/01 08:13:07;;;;;;;3.58;2.90;;;17.10;50.60;;;;;;5074716;28;20098;-63
2022/05/01 08:15:33;;;;;;;2.88;2.60;;;17.20;50.60;;;;;;5074439;28;20528;-62
2022/05/01 08:21:05;;;;;;;2.35;2.15;;;17.20;50.20;;;;;;5074309;28;20118;-62
2022/05/01 08:23:28;;;;;;;2.90;2.50;;;17.20;49.40;;;;;;5066038;28;20040;-59
2022/05/01 08:25:54;;;;;;;3.30;2.30;;;17.20;49.30;;;;;;5072261;28;20033;-61
2022/05/01 08:28:19;;;;;;;2.65;2.45;;;17.20;49.10;;;;;;5069190;28;20134;-62
2022/05/01 08:30:45;;;;;;;2.60;2.15;;;17.20;49.20;;;;;;5066412;28;20024;-62
2022/05/01 08:33:11;;;;;;;3.40;2.45;;;17.20;49.00;;;;;;5073598;28;20029;-61
2022/05/01 08:35:36;;;;;;;3.17;2.22;;;17.30;49.00;;;;;;5072417;28;20031;-62
2022/05/01 08:38:02;;;;;;;2.53;2.30;;;17.30;49.20;;;;;;5072987;28;20517;-61
2022/05/01 08:40:28;;;;;;;2.63;2.28;;;17.40;47.80;;;;;;5073914;28;20063;-62
2022/05/01 08:42:53;;;;;;;3.20;2.33;;;17.40;47.80;;;;;;5073890;28;20028;-62
2022/05/01 08:45:25;;;;;;;3.33;2.30;;;17.40;47.80;;;;;;5073197;28;20457;-62
2022/05/01 08:48:04;;;;;;;2.67;2.00;;;17.40;47.60;;;;;;5072975;28;20029;-62
2022/05/01 08:50:33;;;;;;;3.05;2.70;;;17.40;47.40;;;;;;5073831;28;20365;-62
2022/05/01 08:53:02;;;;;;;2.95;2.30;;;17.30;47.30;;;;;;5068532;28;20476;-63
2022/05/01 08:55:29;;;;;;;2.40;2.08;;;17.30;47.50;;;;;;5051585;28;20037;-62
2022/05/01 08:57:57;;;;;;;2.08;1.88;;;17.30;47.30;;;;;;5072569;28;20032;-62
2022/05/01 09:00:23;;;;;;;2.83;2.28;;;17.30;47.00;;;;;;5072849;28;20550;-62
2022/05/01 09:02:48;;;;;;;2.60;2.40;;;17.20;46.40;;;;;;5067924;28;20028;-62
2022/05/01 09:05:15;;;;;;;2.25;2.03;;;17.10;46.50;;;;;;5073450;28;20028;-62
2022/05/01 09:07:40;;;;;;;2.55;2.30;;;17.10;46.50;;;;;;5073208;28;20024;-62
2022/05/01 09:10:08;;;;;;;3.05;2.08;;;17.00;46.40;;;;;;5066350;28;20036;-62
2022/05/01 09:12:50;;;;;;;2.50;2.20;;;17.00;46.60;;;;;;5066477;28;20099;-62
2022/05/01 09:15:27;;;;;;;;;;;17.00;46.60;;;;;;5073907;28;20031;-60
2022/05/01 09:18:04;;;;;;;2.30;2.05;;;16.90;46.40;;;;;;5072467;28;19908;-62
2022/05/01 09:20:30;;;;;;;2.13;1.92;;;17.00;46.50;;;;;;5073248;28;20050;-62
2022/05/01 09:22:58;;;;;;;2.65;2.20;;;16.90;46.60;;;;;;5072780;28;20043;-62
2022/05/01 09:25:28;;;;;;;2.45;2.10;;;16.90;46.30;;;;;;5072904;28;20032;-62
2022/05/01 09:27:59;;;;;;;3.47;2.25;;;16.90;46.20;;;;;;5062844;28;20025;-62
2022/05/01 09:30:36;;;;;;;3.60;3.30;;;16.90;46.20;;;;;;5071007;28;20127;-62
2022/05/01 09:33:02;;;;;;;2.50;2.30;;;16.90;46.10;;;;;;5063614;28;20024;-60
2022/05/01 09:35:35;;;;;;;2.58;2.20;;;16.90;45.90;;;;;;5063742;28;20107;-59
2022/05/01 09:38:25;;;;;;;1.98;1.77;;;16.90;45.80;;;;;;5071201;28;20031;-59
2022/05/01 09:40:57;;;;;;;2.30;2.10;;;16.90;45.70;;;;;;5065824;28;20017;-59
2022/05/01 09:43:41;;;;;;;2.33;2.13;;;16.80;45.50;;;;;;5058883;28;20036;-62
2022/05/01 09:46:17;;;;;;;2.20;2.00;;;16.80;45.60;;;;;;5071860;28;20028;-62
2022/05/01 09:48:58;;;;;;;2.38;2.17;;;16.80;45.50;;;;;;5072246;28;20029;-62
2022/05/01 09:51:24;;;;;;;2.20;2.00;;;16.80;45.40;;;;;;5071511;28;20123;-62
2022/05/01 09:53:50;;;;;;;1.98;1.85;;;16.80;45.40;;;;;;5057911;28;20036;-62
2022/05/01 09:56:16;;;;;;;2.35;2.00;;;16.80;45.30;;;;;;5070339;28;20029;-62
2022/05/01 09:58:43;;;;;;;2.38;2.17;;;16.80;45.40;;;;;;5070689;28;20032;-62
2022/05/01 10:01:13;;;;;;;2.78;2.10;;;16.80;45.30;;;;;;5065796;28;20104;-62
2022/05/01 10:03:45;;;;;;;2.53;2.33;;;16.80;44.90;;;;;;5068583;28;20044;-62
2022/05/01 10:06:13;;;;;;;2.20;1.98;;;16.80;45.00;;;;;;5072253;28;20095;-62
2022/05/01 10:08:40;;;;;;;2.55;2.00;;;16.80;44.80;;;;;;5068420;28;20040;-62
2022/05/01 10:11:07;;;;;;;1.98;1.85;;;16.80;44.90;;;;;;5071794;28;20473;-61
2022/05/01 10:13:34;;;;;;;1.55;1.45;;;16.80;44.80;;;;;;5061759;28;20025;-61
2022/05/01 10:16:03;;;;;;;2.13;1.85;;;16.80;44.80;;;;;;5069224;28;20048;-62
2022/05/01 10:18:29;;;;;;;2.30;2.10;;;16.80;44.70;;;;;;5067650;28;20036;-61
2022/05/01 10:20:55;;;;;;;2.90;2.13;;;16.80;44.50;;;;;;5071524;28;20021;-61
2022/05/01 10:23:22;;;;;;;2.40;2.20;;;16.80;44.40;;;;;;5064425;28;20063;-61
2022/05/01 10:26:10;;;;;;;2.00;1.80;;;16.80;44.80;;;;;;5066577;28;20021;-61
2022/05/01 10:28:50;;;;;;;2.85;2.10;;;16.80;44.70;;;;;;5067713;28;20044;-62
2022/05/01 10:35:02;;;;;;;2.45;1.85;;;16.80;44.60;;;;;;5060501;28;20031;-61
2022/05/01 10:37:30;;;;;;;3.42;1.80;;;16.80;44.50;;;;;;5069863;28;20120;-61
2022/05/01 10:39:58;;;;;;;2.03;1.83;;;16.80;44.70;;;;;;5069625;28;20032;-61
2022/05/01 10:42:43;;;;;;;2.35;2.15;;;16.80;44.40;;;;;;5052413;28;20028;-61
2022/05/01 10:45:21;;;;;;;1.98;1.70;;;16.80;44.40;;;;;;5066927;28;20114;-61
2022/05/01 10:47:51;;;;;;;2.05;1.80;;;16.80;44.30;;;;;;5071623;28;20078;-61
2022/05/01 10:50:28;;;;;;;2.20;2.00;;;16.80;44.30;;;;;;5071697;28;20054;-61
2022/05/01 10:53:05;;;;;;;2.53;2.03;;;16.80;44.10;;;;;;5059903;28;20478;-61
2022/05/01 10:55:52;;;;;;;2.67;1.90;;;16.80;44.00;;;;;;5051431;28;20060;-62
2022/05/01 10:58:26;;;;;;;2.50;2.10;;;16.80;44.10;;;;;;5070034;28;20024;-61
2022/05/01 11:00:56;;;;;;;4.05;1.67;;;16.80;44.20;;;;;;5071518;28;20516;-61
2022/05/01 11:03:30;;;;;;;3.28;2.00;;;16.80;44.40;;;;;;5071557;28;20020;-61
2022/05/01 11:06:02;;;;;;;1.90;1.80;;;16.90;44.20;;;;;;5071509;28;20031;-61
2022/05/01 11:08:31;;;;;;;1.80;1.70;;;16.90;44.10;;;;;;5070640;28;20021;-61
2022/05/01 11:10:59;;;;;;;2.85;1.98;;;16.90;44.10;;;;;;5065811;28;20107;-61
2022/05/01 11:13:33;;;;;;;2.50;2.17;;;16.90;44.00;;;;;;5071718;28;20472;-61
2022/05/01 11:15:59;;;;;;;2.20;2.00;;;16.90;44.00;;;;;;5073640;28;20430;-62
2022/05/01 11:18:40;;;;;;;2.17;1.98;;;16.90;44.30;;;;;;5075599;28;20043;-61
2022/05/01 11:21:24;;;;;;;2.53;2.10;;;16.90;45.00;;;;;;5075330;28;20024;-61
2022/05/01 11:24:04;;;;;;;2.17;2.00;;;16.90;46.00;;;;;;5075070;28;20139;-61
2022/05/01 11:26:31;;;;;;;2.30;1.90;;;16.90;46.30;;;;;;5074227;28;20480;-61
2022/05/01 11:29:13;;;;;;;2.10;1.90;;;16.90;45.80;;;;;;5070189;28;20448;-61
2022/05/01 11:31:39;;;;;;;2.20;2.00;;;16.80;45.10;;;;;;5075440;28;20028;-61
2022/05/01 11:34:17;;;;;;;1.77;1.67;;;16.80;44.90;;;;;;5075319;28;20110;-61
2022/05/01 11:37:01;;;;;;;2.58;1.80;;;16.80;45.60;;;;;;5075210;28;20054;-62
2022/05/01 11:40:09;;;;;;;2.10;1.90;;;16.90;44.90;;;;;;5074463;28;20086;-62
2022/05/01 11:42:36;;;;;;;2.15;1.90;;;16.80;44.50;;;;;;5012813;28;20033;-61
2022/05/01 11:45:04;;;;;;;4.00;2.50;;;16.90;44.50;;;;;;5058545;28;20037;-61
2022/05/01 11:47:34;;;;;;;2.63;1.90;;;16.90;44.50;;;;;;5073761;28;20075;-61
2022/05/01 11:50:01;;;;;;;1.92;1.83;;;16.90;44.60;;;;;;5074620;28;20434;-61
2022/05/01 11:52:27;;;;;;;2.45;2.15;;;16.90;44.90;;;;;;5075076;28;20158;-61
2022/05/01 11:54:59;;;;;;;3.25;2.20;;;16.90;44.90;;;;;;5074661;28;20530;-61
2022/05/01 12:03:05;;;;;;;5.53;3.30;;;16.80;44.40;;;;;;5074860;28;20115;-61
2022/05/01 12:05:32;;;;;;;3.00;2.70;;;16.80;44.30;;;;;;5074231;28;20028;-61
2022/05/01 12:07:59;;;;;;;3.55;3.10;;;16.80;44.10;;;;;;5073439;28;20020;-61
2022/05/01 12:10:26;;;;;;;3.50;3.20;;;16.80;44.20;;;;;;5074748;28;20392;-61
2022/05/01 12:12:52;;;;;;;3.65;3.03;;;16.80;44.10;;;;;;5074350;28;20085;-61
2022/05/01 12:15:18;;;;;;;2.80;2.60;;;16.80;44.30;;;;;;5074263;28;20108;-61
2022/05/01 12:17:44;;;;;;;2.45;2.25;;;16.80;44.40;;;;;;5063443;28;20504;-61
2022/05/01 12:20:11;;;;;;;4.50;3.00;;;16.80;44.40;;;;;;5062978;28;20480;-61
2022/05/01 12:22:39;;;;;;;5.45;2.90;;;16.80;44.30;;;;;;5074065;28;20530;-61
2022/05/01 12:25:07;;;;;;;3.80;2.70;;;16.80;44.10;;;;;;5074455;28;20479;-61
2022/05/01 12:27:34;;;;;;;3.88;2.95;;;16.80;44.00;;;;;;5073113;28;20071;-62
2022/05/01 12:30:02;;;;;;;2.70;2.50;;;16.80;43.70;;;;;;5074250;28;20446;-61
2022/05/01 12:32:28;;;;;;;2.60;2.40;;;16.80;43.60;;;;;;5074032;28;20028;-61
2022/05/01 12:34:57;;;;;;;2.78;2.17;;;16.80;43.50;;;;;;5066451;28;20043;-60
2022/05/01 12:37:29;;;;;;;2.17;1.98;;;16.90;43.20;;;;;;5072877;28;20563;-61
2022/05/01 12:39:59;;;;;;;1.90;1.80;;;16.90;43.20;;;;;;5073701;28;20106;-61
2022/05/01 12:45:17;;;;;;;2.83;2.10;;;17.00;43.10;;;;;;5074130;28;20032;-60
2022/05/01 12:47:48;;;;;;;3.83;2.25;;;17.00;42.90;;;;;;5071819;28;20067;-60
2022/05/01 12:50:20;;;;;;;2.45;2.22;;;17.00;43.00;;;;;;5072340;28;20039;-60
2022/05/01 12:52:57;;;;;;;2.75;2.22;;;17.00;43.40;;;;;;5073129;28;20024;-60
2022/05/01 12:55:33;;;;;;;2.55;2.35;;;17.00;43.30;;;;;;5073660;28;20111;-62
2022/05/01 12:58:02;;;;;;;3.67;2.88;;;17.00;43.60;;;;;;5073636;28;20135;-62
2022/05/01 13:00:39;;;;;;;2.80;2.50;;;17.00;43.80;;;;;;5073555;28;20047;-61
2022/05/01 13:03:26;;;;;;;2.45;2.25;;;17.00;43.70;;;;;;5073674;28;20499;-61
2022/05/01 13:05:59;;;;;;;2.95;2.65;;;16.90;43.60;;;;;;5072816;28;20021;-61
2022/05/01 13:08:26;;;;;;;3.25;2.20;;;16.90;43.40;;;;;;5064516;28;20120;-61
2022/05/01 13:11:10;;;;;;;2.72;2.28;;;16.90;43.20;;;;;;5071706;28;20021;-61
2022/05/01 13:13:52;;;;;;;2.67;2.22;;;16.90;42.90;;;;;;5073081;28;20028;-61
2022/05/01 13:16:24;;;;;;;2.30;2.10;;;16.90;42.90;;;;;;5073136;28;20024;-61
2022/05/01 13:18:55;;;;;;;3.35;2.20;;;16.80;42.90;;;;;;5073226;28;20488;-61
2022/05/01 13:21:21;;;;;;;;;;;16.80;42.90;;;;;;5071728;28;20036;-60
2022/05/01 13:23:49;;;;;;;2.50;2.30;;;16.80;43.50;;;;;;5068725;28;20414;-61
2022/05/01 13:26:15;;;;;;;2.10;2.00;;;16.80;43.40;;;;;;5067780;28;20052;-62